Time;durP1;ratioP1;P1;durP2;ratioP2;P2;SDS_P1;SDS_P2;PMS_P1;PMS_P2;Temp;Humidity;BMP_temperature;BMP_pressure;BME280_temperature;BME280_humidity;BME280_pressure;Samples;Min_cycle;Max_cycle;Signal;HPM_P1;HPM_P2
2021/04/12 01:51:22;;;;;;;36.70;34.70;;;4.60;99.90;;;;;;5838354;23;20469;-68
2021/04/12 01:54:27;;;;;;;36.87;34.97;;;4.60;99.90;;;;;;4989713;28;20955;-68
2021/04/12 01:57:13;;;;;;;37.40;35.40;;;4.70;99.90;;;;;;4976846;28;20450;-68
2021/04/12 01:59:55;;;;;;;38.00;35.80;;;4.70;99.90;;;;;;4989438;28;20458;-69
2021/04/12 02:02:33;;;;;;;37.50;35.50;;;4.60;99.90;;;;;;4989488;28;20523;-67
2021/04/12 02:05:22;;;;;;;37.97;35.77;;;4.60;99.90;;;;;;4991902;28;20452;-68
2021/04/12 02:08:04;;;;;;;38.97;36.50;;;4.60;99.90;;;;;;4987111;28;20960;-68
2021/04/12 02:11:11;;;;;;;38.73;36.53;;;4.50;99.90;;;;;;4990790;28;20509;-68
2021/04/12 02:14:07;;;;;;;37.40;35.40;;;4.60;99.90;;;;;;4991586;28;20547;-68
2021/04/12 02:16:43;;;;;;;38.97;36.87;;;4.60;99.90;;;;;;4990985;28;20469;-68
2021/04/12 02:19:28;;;;;;;37.87;35.67;;;4.60;99.90;;;;;;4990551;28;20448;-69
2021/04/12 02:22:05;;;;;;;36.73;34.63;;;4.70;99.90;;;;;;4990940;28;20484;-69
2021/04/12 02:24:38;;;;;;;37.13;35.13;;;4.70;99.90;;;;;;4990464;28;20944;-68
2021/04/12 02:27:09;;;;;;;38.93;36.63;;;4.70;99.90;;;;;;4989657;28;21333;-70
2021/04/12 02:29:55;;;;;;;39.60;37.50;;;4.70;99.90;;;;;;4991451;28;20451;-67
2021/04/12 02:32:44;;;;;;;38.80;36.53;;;4.50;99.90;;;;;;4989323;28;20530;-68
2021/04/12 02:35:27;;;;;;;39.33;37.13;;;4.50;99.90;;;;;;4990308;28;20470;-70
2021/04/12 02:38:11;;;;;;;40.50;38.00;;;4.40;99.90;;;;;;4990704;28;20570;-70
2021/04/12 02:40:57;;;;;;;39.20;37.00;;;4.30;99.90;;;;;;4991174;28;20480;-69
2021/04/12 02:43:36;;;;;;;39.10;36.90;;;4.30;99.90;;;;;;4989518;28;20442;-69
2021/04/12 02:46:22;;;;;;;40.60;38.20;;;4.30;99.90;;;;;;4988898;28;21046;-69
2021/04/12 02:48:58;;;;;;;39.80;37.60;;;4.30;99.90;;;;;;4989557;28;20452;-69
2021/04/12 02:51:45;;;;;;;39.10;36.70;;;4.30;99.90;;;;;;4988980;28;20875;-69
2021/04/12 02:54:39;;;;;;;38.13;35.97;;;4.30;99.90;;;;;;4989917;28;20443;-69
2021/04/12 02:57:40;;;;;;;37.83;35.77;;;4.30;99.90;;;;;;4988732;28;20542;-69
2021/04/12 03:00:32;;;;;;;39.47;37.00;;;4.30;99.90;;;;;;4989446;28;20434;-69
2021/04/12 03:03:40;;;;;;;40.20;37.80;;;4.40;99.90;;;;;;4990509;28;20478;-69
2021/04/12 03:06:38;;;;;;;39.20;37.07;;;4.30;99.90;;;;;;4971875;28;20450;-68
2021/04/12 03:09:49;;;;;;;39.47;37.23;;;4.30;99.90;;;;;;4987234;28;20969;-69
2021/04/12 03:12:59;;;;;;;40.77;38.17;;;4.30;99.90;;;;;;4968217;28;20458;-70
2021/04/12 03:15:52;;;;;;;39.17;36.97;;;4.30;99.90;;;;;;4998597;28;20439;-71
2021/04/12 03:18:49;;;;;;;40.87;38.53;;;4.30;99.90;;;;;;4998551;28;20503;-70
2021/04/12 03:21:56;;;;;;;41.13;38.43;;;4.40;99.90;;;;;;5005856;28;20485;-69
2021/04/12 03:24:28;;;;;;;41.17;38.57;;;4.40;99.90;;;;;;4968958;28;20938;-70
2021/04/12 03:27:31;;;;;;;42.10;39.50;;;4.40;99.90;;;;;;4990814;28;20509;-69
2021/04/12 03:30:19;;;;;;;41.63;38.93;;;4.50;99.90;;;;;;4987912;28;20820;-69
2021/04/12 03:33:01;;;;;;;41.40;39.20;;;4.50;99.90;;;;;;4989300;28;20724;-69
2021/04/12 03:35:39;;;;;;;41.07;38.77;;;4.40;99.90;;;;;;4992014;28;20933;-70
2021/04/12 03:38:34;;;;;;;40.60;38.20;;;4.40;99.90;;;;;;4991963;28;20450;-70
2021/04/12 03:41:42;;;;;;;39.63;37.33;;;4.40;99.90;;;;;;4991805;28;20463;-69
2021/04/12 03:44:25;;;;;;;40.40;37.87;;;4.40;99.90;;;;;;4991927;28;20980;-70
2021/04/12 03:47:09;;;;;;;40.30;37.90;;;4.30;99.90;;;;;;4991855;28;20448;-69
2021/04/12 03:50:20;;;;;;;40.17;37.87;;;4.30;99.90;;;;;;4991567;28;20850;-70
2021/04/12 03:53:03;;;;;;;39.20;36.90;;;4.20;99.90;;;;;;4991574;28;20529;-70
2021/04/12 03:55:55;;;;;;;40.43;38.07;;;4.20;99.90;;;;;;4991376;28;20801;-69
2021/04/12 03:58:48;;;;;;;41.57;38.87;;;4.20;99.90;;;;;;4988116;28;20860;-69
2021/04/12 04:01:37;;;;;;;39.67;37.47;;;4.20;99.90;;;;;;4991405;28;20904;-70
2021/04/12 04:04:26;;;;;;;40.43;37.97;;;4.30;99.90;;;;;;4991422;28;20454;-70
2021/04/12 04:07:17;;;;;;;39.63;37.33;;;4.30;99.90;;;;;;4991571;28;20978;-70
2021/04/12 04:09:54;;;;;;;39.67;37.37;;;4.20;99.90;;;;;;4991305;28;20552;-70
2021/04/12 04:12:44;;;;;;;39.47;36.93;;;4.20;99.90;;;;;;4991372;28;20446;-70
2021/04/12 04:15:22;;;;;;;41.20;38.70;;;4.40;99.90;;;;;;4991621;28;20541;-71
2021/04/12 04:18:14;;;;;;;40.03;37.50;;;4.30;99.90;;;;;;4991295;28;20470;-71
2021/04/12 04:21:09;;;;;;;38.97;36.83;;;4.40;99.90;;;;;;4991578;28;20477;-70
2021/04/12 04:24:06;;;;;;;37.63;35.73;;;4.20;99.90;;;;;;4991471;28;20823;-70
2021/04/12 04:26:59;;;;;;;40.83;38.43;;;4.20;99.90;;;;;;4959446;28;20447;-70
2021/04/12 04:29:41;;;;;;;41.20;38.70;;;4.30;99.90;;;;;;4991627;28;20454;-70
2021/04/12 04:32:34;;;;;;;43.13;40.57;;;4.30;99.90;;;;;;4991482;28;20454;-70
2021/04/12 04:35:24;;;;;;;41.63;39.33;;;4.30;99.90;;;;;;4991223;28;20455;-70
2021/04/12 04:38:21;;;;;;;42.00;39.27;;;4.40;99.90;;;;;;4948673;28;20961;-71
2021/04/12 04:40:59;;;;;;;42.03;39.10;;;4.40;99.90;;;;;;4991160;28;20453;-70
2021/04/12 04:43:46;;;;;;;42.83;39.80;;;4.30;99.90;;;;;;4993269;28;20454;-70
2021/04/12 04:46:25;;;;;;;43.63;40.63;;;4.20;99.90;;;;;;4995127;28;20456;-71
2021/04/12 04:49:10;;;;;;;43.50;40.97;;;4.30;99.90;;;;;;4995221;28;20451;-70
2021/04/12 04:52:10;;;;;;;44.30;41.60;;;4.20;99.90;;;;;;4995159;28;20474;-71
2021/04/12 04:55:04;;;;;;;45.57;42.43;;;4.30;99.90;;;;;;4995087;28;20450;-71
2021/04/12 04:57:43;;;;;;;45.67;42.47;;;4.30;99.90;;;;;;4995109;28;20451;-71
2021/04/12 05:00:29;;;;;;;43.90;41.03;;;4.30;99.90;;;;;;4995116;28;20464;-70
2021/04/12 05:03:24;;;;;;;43.47;40.80;;;4.30;99.90;;;;;;4995059;28;20498;-69
2021/04/12 05:06:19;;;;;;;43.40;40.63;;;4.20;99.90;;;;;;4995000;28;20870;-68
2021/04/12 05:09:25;;;;;;;43.50;41.00;;;4.20;99.90;;;;;;4981552;28;20524;-70
2021/04/12 05:12:42;;;;;;;44.20;41.50;;;4.10;99.90;;;;;;4994385;28;20447;-71
2021/04/12 05:15:47;;;;;;;43.30;40.43;;;4.10;99.90;;;;;;4961918;28;20462;-70
2021/04/12 05:18:42;;;;;;;44.37;41.57;;;4.10;99.90;;;;;;4981697;28;20459;-70
2021/04/12 05:21:18;;;;;;;41.60;39.20;;;4.00;99.90;;;;;;4991770;28;20464;-69
2021/04/12 05:23:55;;;;;;;43.10;40.50;;;4.00;99.90;;;;;;4995056;28;20476;-70
2021/04/12 05:26:34;;;;;;;45.80;43.13;;;4.00;99.90;;;;;;4994508;28;20438;-70
2021/04/12 05:29:35;;;;;;;42.77;40.37;;;4.00;99.90;;;;;;4994461;28;20482;-71
2021/04/12 05:32:20;;;;;;;44.10;41.47;;;4.00;99.90;;;;;;4964063;28;20456;-71
2021/04/12 05:35:10;;;;;;;42.87;40.37;;;4.10;99.90;;;;;;4993674;28;20453;-71
2021/04/12 05:38:17;;;;;;;40.70;38.33;;;4.10;99.90;;;;;;4994440;28;20471;-71
2021/04/12 05:41:03;;;;;;;43.00;40.30;;;4.10;99.90;;;;;;4994475;28;20458;-71
2021/04/12 05:43:53;;;;;;;41.93;39.63;;;4.00;99.90;;;;;;4994347;28;20443;-71
2021/04/12 05:46:36;;;;;;;42.33;39.80;;;3.90;99.90;;;;;;4994149;28;20448;-71
2021/04/12 05:49:18;;;;;;;43.20;40.60;;;3.80;99.90;;;;;;4994050;28;20474;-72
2021/04/12 05:52:18;;;;;;;43.87;41.17;;;3.90;99.90;;;;;;4993831;28;20570;-71
2021/04/12 05:55:05;;;;;;;44.03;41.43;;;3.90;99.90;;;;;;4991433;28;20462;-71
2021/04/12 05:58:15;;;;;;;45.30;42.70;;;4.00;99.90;;;;;;4993973;28;20517;-70
2021/04/12 06:00:53;;;;;;;43.77;41.10;;;4.00;99.90;;;;;;4947662;28;20462;-71
2021/04/12 06:03:34;;;;;;;46.67;43.60;;;4.10;99.90;;;;;;4997798;28;20493;-71
2021/04/12 06:06:37;;;;;;;46.60;43.70;;;4.00;99.90;;;;;;4998083;28;20504;-71
2021/04/12 06:09:26;;;;;;;48.57;45.43;;;4.10;99.90;;;;;;4993611;28;20454;-73
2021/04/12 06:12:10;;;;;;;47.60;44.60;;;4.20;99.90;;;;;;4993785;28;20443;-72
2021/04/12 06:15:02;;;;;;;47.60;44.70;;;4.10;99.90;;;;;;4982727;28;20886;-71
2021/04/12 06:17:48;;;;;;;49.97;46.77;;;4.10;99.90;;;;;;4973873;28;20486;-71
2021/04/12 06:20:33;;;;;;;50.57;47.47;;;4.20;99.90;;;;;;4973812;28;20534;-70
2021/04/12 06:23:36;;;;;;;49.73;46.43;;;4.20;99.90;;;;;;4973580;28;20487;-70
2021/04/12 06:26:31;;;;;;;48.80;45.70;;;4.20;99.90;;;;;;4973431;28;20451;-70
2021/04/12 06:29:50;;;;;;;50.67;47.17;;;4.20;99.90;;;;;;4974072;28;20432;-70
2021/04/12 06:32:44;;;;;;;48.70;45.60;;;4.40;99.90;;;;;;4949270;28;20456;-70
2021/04/12 06:35:29;;;;;;;50.13;46.83;;;4.60;99.90;;;;;;4973061;28;20449;-70
2021/04/12 06:38:28;;;;;;;52.50;48.80;;;4.70;99.90;;;;;;4973589;28;20455;-70
2021/04/12 06:41:33;;;;;;;53.70;50.00;;;4.90;99.90;;;;;;4973449;28;20447;-70
2021/04/12 06:44:37;;;;;;;51.07;47.80;;;5.20;99.90;;;;;;4958222;28;20453;-70
2021/04/12 06:47:32;;;;;;;50.93;47.30;;;5.30;99.90;;;;;;4972696;28;20458;-71
2021/04/12 06:50:30;;;;;;;49.17;46.03;;;5.30;99.90;;;;;;4973266;28;20463;-70
2021/04/12 06:53:59;;;;;;;48.63;45.67;;;5.40;99.90;;;;;;4973545;28;20444;-70
2021/04/12 06:57:13;;;;;;;46.87;44.07;;;5.40;99.90;;;;;;4965867;28;20450;-70
2021/04/12 07:00:14;;;;;;;44.90;41.90;;;5.40;99.90;;;;;;4972945;28;20450;-70
2021/04/12 07:03:16;;;;;;;46.17;42.80;;;5.30;99.90;;;;;;4972882;28;20497;-71
2021/04/12 07:06:15;;;;;;;45.53;42.47;;;5.40;99.90;;;;;;4971747;28;20478;-70
2021/04/12 07:09:10;;;;;;;41.83;39.13;;;5.60;99.90;;;;;;4963027;28;20467;-70
2021/04/12 07:12:16;;;;;;;42.10;39.50;;;5.50;99.90;;;;;;4947636;28;20449;-71
2021/04/12 07:15:21;;;;;;;42.43;39.77;;;5.50;99.90;;;;;;4972920;28;20499;-73
2021/04/12 07:18:40;;;;;;;42.07;39.23;;;5.50;99.90;;;;;;4972806;28;20462;-73
2021/04/12 07:21:28;;;;;;;39.30;36.73;;;5.50;99.90;;;;;;4939752;29;20443;-74
2021/04/12 07:24:47;;;;;;;39.93;37.27;;;5.50;99.90;;;;;;4994185;28;20935;-73
2021/04/12 07:28:02;;;;;;;39.67;37.10;;;5.40;99.90;;;;;;4998635;28;21045;-73
2021/04/12 07:31:16;;;;;;;38.20;35.80;;;5.20;99.90;;;;;;4997496;28;20453;-73
2021/04/12 07:34:11;;;;;;;37.40;35.10;;;5.30;99.90;;;;;;5009684;28;20449;-73
2021/04/12 07:37:14;;;;;;;37.70;35.30;;;5.30;99.90;;;;;;5010533;28;20454;-73
2021/04/12 07:40:22;;;;;;;39.83;36.90;;;5.30;99.90;;;;;;5011348;28;20451;-74
2021/04/12 07:43:42;;;;;;;38.03;35.43;;;5.30;99.90;;;;;;5011042;28;20541;-74
2021/04/12 07:46:47;;;;;;;37.80;34.97;;;5.50;99.90;;;;;;4924830;29;20464;-74
2021/04/12 07:49:46;;;;;;;36.80;34.20;;;5.50;99.90;;;;;;4911308;29;20479;-74
2021/04/12 07:53:05;;;;;;;38.93;35.47;;;5.50;99.90;;;;;;4988040;28;20482;-73
2021/04/12 07:56:14;;;;;;;37.63;34.73;;;5.60;99.90;;;;;;4896275;29;20494;-73
2021/04/12 07:59:17;;;;;;;33.57;31.00;;;5.50;99.90;;;;;;4943939;28;20443;-73
2021/04/12 08:02:15;;;;;;;34.07;31.50;;;5.70;99.90;;;;;;4990697;28;20484;-73
2021/04/12 08:05:27;;;;;;;34.13;31.27;;;5.70;99.90;;;;;;4991270;28;20453;-74
2021/04/12 08:08:31;;;;;;;32.43;30.03;;;5.80;99.90;;;;;;4990820;28;20954;-74
2021/04/12 08:11:43;;;;;;;34.40;31.40;;;6.10;99.90;;;;;;4991232;28;20449;-74
2021/04/12 08:14:51;;;;;;;31.93;29.33;;;6.20;99.90;;;;;;4991333;28;20511;-76
2021/04/12 08:17:48;;;;;;;31.07;28.43;;;6.20;99.90;;;;;;4991222;28;20450;-76
2021/04/12 08:20:49;;;;;;;31.27;28.77;;;6.10;99.90;;;;;;4991199;28;20460;-75
2021/04/12 08:24:10;;;;;;;29.93;27.30;;;6.40;99.90;;;;;;4991201;28;20490;-76
2021/04/12 08:27:10;;;;;;;30.27;28.10;;;6.50;99.90;;;;;;4930746;29;20480;-76
2021/04/12 08:30:24;;;;;;;31.70;28.80;;;6.60;99.90;;;;;;4930893;29;20468;-76
2021/04/12 08:33:30;;;;;;;30.03;27.73;;;6.60;99.90;;;;;;4971449;28;20457;-76
2021/04/12 08:37:00;;;;;;;30.07;27.80;;;6.50;99.90;;;;;;4954423;28;20977;-75
2021/04/12 08:40:07;;;;;;;29.23;26.80;;;6.50;99.90;;;;;;4911939;29;20460;-76
2021/04/12 08:43:03;;;;;;;27.67;25.67;;;6.90;99.90;;;;;;4911613;29;20489;-76
2021/04/12 08:46:13;;;;;;;27.90;25.80;;;7.00;99.90;;;;;;4971595;28;20490;-76
2021/04/12 08:49:11;;;;;;;27.30;25.13;;;7.10;99.90;;;;;;4974143;28;20475;-76
2021/04/12 08:52:14;;;;;;;25.70;23.60;;;7.00;99.90;;;;;;4975012;28;20496;-75
2021/04/12 08:55:00;;;;;;;27.97;25.67;;;7.10;99.90;;;;;;4991625;28;20453;-78
2021/04/12 08:57:49;;;;;;;28.43;26.07;;;7.30;99.90;;;;;;4976298;28;20447;-78
2021/04/12 09:00:58;;;;;;;26.97;25.07;;;7.10;99.90;;;;;;4972223;28;20448;-77
2021/04/12 09:04:02;;;;;;;25.57;23.87;;;7.20;99.90;;;;;;4972217;28;20491;-78
2021/04/12 09:07:07;;;;;;;25.03;22.67;;;7.20;99.90;;;;;;4971891;28;20957;-78
2021/04/12 09:09:55;;;;;;;25.13;23.03;;;7.30;99.90;;;;;;4973521;28;20470;-78
2021/04/12 09:12:40;;;;;;;24.70;22.77;;;7.60;99.90;;;;;;4990268;28;20446;-78
2021/04/12 09:15:34;;;;;;;25.53;22.87;;;7.60;99.90;;;;;;4991301;28;20454;-79
2021/04/12 09:18:36;;;;;;;23.13;21.33;;;7.80;99.90;;;;;;4991329;28;20536;-79
2021/04/12 09:21:21;;;;;;;21.10;19.60;;;8.10;99.90;;;;;;4946786;28;20458;-79
2021/04/12 09:24:30;;;;;;;21.83;20.27;;;8.00;99.90;;;;;;4983219;28;20439;-78
2021/04/12 09:27:27;;;;;;;22.90;21.30;;;8.10;99.90;;;;;;4991132;28;20454;-78
2021/04/12 09:30:21;;;;;;;21.13;19.50;;;8.20;99.90;;;;;;4974161;28;20456;-78
2021/04/12 09:33:27;;;;;;;23.00;21.40;;;8.40;99.90;;;;;;4975173;28;21004;-78
2021/04/12 09:36:10;;;;;;;21.20;19.60;;;8.50;99.90;;;;;;4972086;28;20454;-77
2021/04/12 09:39:10;;;;;;;21.03;19.53;;;8.40;99.90;;;;;;4994893;28;20451;-77
2021/04/12 09:42:01;;;;;;;21.50;19.80;;;8.20;99.90;;;;;;4993856;28;20944;-78
2021/04/12 09:45:05;;;;;;;21.20;19.40;;;8.30;99.90;;;;;;4994043;28;20447;-77
2021/04/12 09:48:15;;;;;;;21.40;19.83;;;8.30;99.90;;;;;;4992096;28;20457;-77
2021/04/12 09:51:10;;;;;;;20.10;18.80;;;8.60;99.90;;;;;;4976954;28;20488;-77
2021/04/12 09:54:04;;;;;;;19.53;18.23;;;8.50;99.90;;;;;;4994362;28;20987;-77
2021/04/12 09:57:13;;;;;;;17.20;16.20;;;8.80;99.90;;;;;;4983934;28;20459;-76
2021/04/12 09:59:47;;;;;;;18.10;17.00;;;8.50;99.90;;;;;;4987719;28;20525;-76
2021/04/12 10:02:44;;;;;;;17.80;16.60;;;8.60;99.90;;;;;;4994000;28;20494;-76
2021/04/12 10:05:55;;;;;;;17.53;16.43;;;8.90;99.90;;;;;;4976243;28;20498;-76
2021/04/12 10:08:27;;;;;;;17.73;16.73;;;9.10;99.90;;;;;;4993797;28;20792;-76
2021/04/12 10:11:01;;;;;;;16.50;15.40;;;9.20;99.90;;;;;;4994290;28;20828;-76
2021/04/12 10:13:41;;;;;;;17.90;16.43;;;9.50;99.90;;;;;;4993958;28;20477;-77
2021/04/12 10:16:19;;;;;;;17.83;16.73;;;9.50;99.90;;;;;;4994114;28;20476;-76
2021/04/12 10:18:56;;;;;;;16.17;15.27;;;9.60;99.90;;;;;;4993605;28;20549;-77
2021/04/12 10:21:30;;;;;;;17.40;16.30;;;9.70;99.90;;;;;;4993188;28;20446;-77
2021/04/12 10:24:07;;;;;;;16.90;15.83;;;9.70;99.90;;;;;;4993914;28;20435;-76
2021/04/12 10:26:39;;;;;;;16.90;16.00;;;9.50;99.90;;;;;;4993402;28;20485;-76
2021/04/12 10:29:10;;;;;;;17.77;16.47;;;9.30;99.50;;;;;;4993144;28;21022;-77
2021/04/12 10:31:41;;;;;;;15.70;14.80;;;9.30;99.90;;;;;;4993755;28;20486;-77
2021/04/12 10:34:15;;;;;;;14.67;13.87;;;9.10;99.70;;;;;;4993288;28;20510;-77
2021/04/12 10:37:05;;;;;;;14.40;13.70;;;9.20;99.90;;;;;;4993768;28;20508;-76
2021/04/12 10:39:39;;;;;;;14.23;13.57;;;9.30;99.90;;;;;;4993114;28;20443;-77
2021/04/12 10:42:22;;;;;;;14.23;13.63;;;9.30;99.20;;;;;;4993399;28;20501;-76
2021/04/12 10:44:59;;;;;;;15.23;13.87;;;9.60;98.10;;;;;;4993540;28;20466;-78
2021/04/12 10:47:31;;;;;;;14.50;13.70;;;9.90;97.30;;;;;;4993471;28;20454;-76
2021/04/12 10:50:08;;;;;;;13.77;13.07;;;10.00;94.90;;;;;;4993304;28;20475;-76
2021/04/12 10:52:55;;;;;;;12.20;11.50;;;10.30;95.30;;;;;;4993232;28;20493;-76
2021/04/12 10:55:27;;;;;;;12.77;11.97;;;10.60;94.30;;;;;;4993305;28;20454;-75
2021/04/12 10:58:11;;;;;;;13.40;12.70;;;10.70;93.30;;;;;;4993261;28;20463;-76
2021/04/12 11:00:58;;;;;;;14.00;12.80;;;10.80;91.80;;;;;;4993176;28;20455;-75
2021/04/12 11:03:46;;;;;;;14.57;13.13;;;10.50;92.50;;;;;;4992959;28;20501;-75
2021/04/12 11:06:46;;;;;;;14.43;13.63;;;10.50;92.40;;;;;;4993020;28;20458;-77
2021/04/12 11:09:38;;;;;;;13.80;13.00;;;10.90;92.50;;;;;;4960839;28;21013;-76
2021/04/12 11:12:12;;;;;;;14.33;13.43;;;11.10;91.50;;;;;;4993083;28;20508;-76
2021/04/12 11:14:46;;;;;;;14.10;13.40;;;11.30;89.80;;;;;;4993199;28;20457;-76
2021/04/12 11:17:25;;;;;;;14.80;13.80;;;11.60;90.40;;;;;;4993071;28;20458;-75
2021/04/12 11:20:04;;;;;;;13.10;12.20;;;12.10;88.10;;;;;;4993024;28;20455;-75
2021/04/12 11:22:43;;;;;;;12.57;11.87;;;12.10;82.80;;;;;;4992538;28;21111;-75
2021/04/12 11:25:16;;;;;;;12.47;11.77;;;11.70;81.70;;;;;;4992826;28;20880;-75
2021/04/12 11:28:04;;;;;;;12.43;11.73;;;11.70;86.00;;;;;;4992699;28;20455;-75
2021/04/12 11:30:37;;;;;;;12.27;11.67;;;11.80;81.70;;;;;;4992461;28;20454;-74
2021/04/12 11:33:16;;;;;;;12.03;11.33;;;11.90;79.30;;;;;;4992323;28;20473;-75
2021/04/12 11:35:55;;;;;;;11.63;11.00;;;11.90;78.80;;;;;;4992470;28;20482;-75
2021/04/12 11:38:25;;;;;;;12.37;11.67;;;11.20;79.90;;;;;;4992563;28;20458;-75
2021/04/12 11:40:57;;;;;;;11.50;10.90;;;11.20;83.70;;;;;;4992328;28;20454;-75
2021/04/12 11:43:28;;;;;;;10.30;9.70;;;11.10;81.30;;;;;;4992383;28;20486;-75
2021/04/12 11:46:02;;;;;;;11.33;10.80;;;10.90;83.20;;;;;;4992533;28;20514;-74
2021/04/12 11:48:38;;;;;;;11.53;11.13;;;10.60;81.40;;;;;;4992251;28;20873;-74
2021/04/12 11:51:11;;;;;;;10.70;10.20;;;10.70;82.30;;;;;;4991753;28;20482;-75
2021/04/12 11:53:49;;;;;;;10.73;10.23;;;10.80;81.00;;;;;;4992262;28;20455;-75
2021/04/12 11:56:42;;;;;;;11.70;11.10;;;11.40;78.90;;;;;;4992254;28;20462;-76
2021/04/12 11:59:17;;;;;;;11.67;11.17;;;12.20;78.30;;;;;;4992269;28;20454;-74
2021/04/12 12:01:49;;;;;;;11.30;10.90;;;13.30;74.90;;;;;;5001954;28;20468;-73
2021/04/12 12:04:20;;;;;;;13.03;12.43;;;14.10;69.30;;;;;;4991736;28;20454;-72
2021/04/12 12:06:56;;;;;;;12.27;11.77;;;14.90;67.00;;;;;;4992303;28;20521;-75
2021/04/12 12:09:35;;;;;;;14.13;13.33;;;15.10;65.70;;;;;;4991902;28;20455;-74
2021/04/12 12:12:09;;;;;;;12.27;11.67;;;16.30;64.10;;;;;;4991728;28;20501;-74
2021/04/12 12:14:40;;;;;;;10.27;9.80;;;15.30;60.00;;;;;;4992024;28;20446;-74
2021/04/12 12:17:15;;;;;;;11.63;11.13;;;15.20;61.30;;;;;;4992058;28;20825;-75
2021/04/12 12:19:47;;;;;;;12.23;11.73;;;14.50;60.70;;;;;;4991938;28;20450;-75
2021/04/12 12:22:20;;;;;;;11.40;10.90;;;15.20;59.70;;;;;;4991857;28;20482;-75
2021/04/12 12:24:56;;;;;;;11.90;11.30;;;15.60;58.80;;;;;;4991143;28;20450;-74
2021/04/12 12:27:29;;;;;;;12.50;12.00;;;14.60;56.30;;;;;;4991802;28;20455;-74
2021/04/12 12:30:03;;;;;;;12.30;11.70;;;13.60;59.30;;;;;;4991680;28;20459;-74
2021/04/12 12:33:24;;;;;;;12.37;11.77;;;12.90;61.80;;;;;;4991369;28;20796;-74
2021/04/12 12:35:58;;;;;;;11.63;11.03;;;12.20;62.00;;;;;;4983876;28;20461;-74
2021/04/12 12:38:36;;;;;;;12.40;11.60;;;11.80;64.60;;;;;;4991904;28;20482;-74
2021/04/12 12:41:06;;;;;;;11.93;11.20;;;11.90;67.30;;;;;;4991671;28;20446;-74
2021/04/12 12:43:36;;;;;;;12.40;11.80;;;11.10;68.40;;;;;;4991274;28;21028;-74
2021/04/12 12:46:08;;;;;;;11.07;10.37;;;11.00;69.90;;;;;;4990093;28;20454;-73
2021/04/12 12:48:42;;;;;;;11.17;10.50;;;10.80;67.60;;;;;;4991851;28;20459;-73
2021/04/12 12:51:12;;;;;;;11.90;10.90;;;10.70;67.00;;;;;;4992033;28;20532;-73
2021/04/12 12:53:42;;;;;;;10.10;9.40;;;10.80;66.60;;;;;;4990101;28;20513;-73
2021/04/12 12:56:17;;;;;;;11.50;10.90;;;11.40;67.10;;;;;;4991834;28;20458;-72
2021/04/12 12:58:57;;;;;;;10.70;10.20;;;12.90;64.20;;;;;;4992056;28;20458;-72
2021/04/12 13:01:33;;;;;;;11.87;11.37;;;14.00;60.50;;;;;;4992026;28;20457;-72
2021/04/12 13:04:16;;;;;;;10.97;10.37;;;14.70;58.60;;;;;;5002134;28;20493;-73
2021/04/12 13:06:43;;;;;;;10.90;10.40;;;14.20;58.60;;;;;;5003962;28;20445;-73
2021/04/12 13:09:32;;;;;;;11.27;10.80;;;13.70;58.70;;;;;;5005598;28;20453;-73
2021/04/12 13:12:00;;;;;;;11.50;10.90;;;12.60;57.60;;;;;;5001461;28;20446;-72
2021/04/12 13:14:35;;;;;;;12.10;11.50;;;12.20;60.70;;;;;;5003483;28;20449;-72
2021/04/12 13:17:15;;;;;;;11.23;10.73;;;11.40;64.30;;;;;;5005466;28;20441;-73
2021/04/12 13:19:47;;;;;;;11.97;11.37;;;10.80;67.00;;;;;;4998440;28;20456;-72
2021/04/12 13:22:19;;;;;;;11.53;11.03;;;10.40;68.40;;;;;;5005050;28;20485;-72
2021/04/12 13:24:45;;;;;;;12.70;12.00;;;10.60;68.10;;;;;;5006722;28;20484;-72
2021/04/12 13:27:16;;;;;;;11.23;10.17;;;10.50;66.20;;;;;;5006524;28;20454;-73
2021/04/12 13:29:46;;;;;;;10.87;10.37;;;10.40;67.80;;;;;;5007353;28;20456;-73
2021/04/12 13:32:14;;;;;;;11.77;11.07;;;10.60;66.80;;;;;;5000290;28;20446;-71
2021/04/12 13:34:45;;;;;;;11.20;10.60;;;11.00;65.50;;;;;;5002998;28;20471;-73
2021/04/12 13:37:14;;;;;;;12.30;11.60;;;11.00;65.00;;;;;;5005862;28;20449;-72
2021/04/12 13:39:44;;;;;;;10.90;10.40;;;11.30;67.40;;;;;;5003904;28;20451;-72
2021/04/12 13:42:17;;;;;;;11.60;10.80;;;11.30;66.30;;;;;;5005557;28;20527;-72
2021/04/12 13:44:53;;;;;;;10.80;10.40;;;11.10;66.30;;;;;;5002994;28;20533;-72
2021/04/12 13:47:24;;;;;;;11.70;11.10;;;11.20;66.00;;;;;;5003565;28;20442;-72
2021/04/12 13:49:56;;;;;;;11.50;10.70;;;11.00;64.00;;;;;;5000910;28;20528;-72
2021/04/12 13:52:25;;;;;;;12.17;11.30;;;11.20;64.70;;;;;;5000020;28;20473;-73
2021/04/12 13:54:57;;;;;;;10.67;10.27;;;11.70;65.70;;;;;;5004918;28;20446;-72
2021/04/12 13:57:30;;;;;;;11.20;10.43;;;11.70;63.30;;;;;;5003717;28;20449;-72
2021/04/12 14:00:07;;;;;;;10.97;10.47;;;11.80;62.00;;;;;;4992589;28;20454;-72
2021/04/12 14:02:38;;;;;;;10.70;10.13;;;12.00;62.40;;;;;;4988608;28;20843;-73
2021/04/12 14:05:09;;;;;;;11.63;10.43;;;12.20;63.50;;;;;;5001859;28;20455;-73
2021/04/12 14:07:43;;;;;;;10.73;10.20;;;12.10;62.40;;;;;;5005893;28;20534;-73
2021/04/12 14:10:14;;;;;;;10.40;9.90;;;12.00;61.90;;;;;;4998768;28;20453;-73
2021/04/12 14:12:52;;;;;;;11.00;10.30;;;11.90;63.40;;;;;;5002558;28;20473;-72
2021/04/12 14:15:29;;;;;;;10.57;9.83;;;11.60;63.30;;;;;;5007755;28;20540;-72
2021/04/12 14:18:01;;;;;;;10.77;10.03;;;11.30;64.00;;;;;;5003619;28;20901;-72
2021/04/12 14:20:34;;;;;;;11.23;10.30;;;11.10;63.10;;;;;;5000363;28;20446;-72
2021/04/12 14:23:05;;;;;;;9.43;8.87;;;10.70;63.30;;;;;;5001593;28;20581;-72
2021/04/12 14:25:35;;;;;;;10.40;9.90;;;10.20;65.40;;;;;;5002786;28;20446;-72
2021/04/12 14:28:09;;;;;;;9.73;9.10;;;9.90;68.80;;;;;;5012923;28;20520;-72
2021/04/12 14:30:45;;;;;;;10.07;9.40;;;9.70;71.10;;;;;;5013105;28;20829;-72
2021/04/12 14:33:15;;;;;;;11.57;10.57;;;9.60;71.90;;;;;;5013154;28;20453;-72
2021/04/12 14:35:44;;;;;;;9.60;9.20;;;9.70;72.90;;;;;;5013125;28;20467;-72
2021/04/12 14:38:14;;;;;;;10.83;10.03;;;9.70;71.00;;;;;;5012879;28;20496;-72
2021/04/12 14:40:42;;;;;;;10.83;10.13;;;9.80;73.20;;;;;;5009317;28;20466;-72
2021/04/12 14:43:18;;;;;;;10.03;9.53;;;9.80;75.20;;;;;;5009426;28;20900;-72
2021/04/12 14:45:48;;;;;;;9.67;9.17;;;9.90;76.50;;;;;;5012775;28;20451;-73
2021/04/12 14:48:20;;;;;;;10.40;9.90;;;10.10;72.40;;;;;;5012713;28;20461;-72
2021/04/12 14:50:49;;;;;;;8.93;8.50;;;10.50;72.20;;;;;;5012242;28;20485;-73
2021/04/12 14:53:19;;;;;;;10.40;9.90;;;10.70;71.10;;;;;;5001610;28;21189;-72
2021/04/12 14:55:50;;;;;;;8.77;8.37;;;10.90;67.80;;;;;;5000740;28;20451;-72
2021/04/12 14:59:02;;;;;;;9.97;9.53;;;11.00;65.20;;;;;;5000164;28;20865;-71
2021/04/12 15:01:33;;;;;;;10.23;9.63;;;11.40;65.30;;;;;;5001395;28;20540;-72
2021/04/12 15:04:02;;;;;;;9.77;9.27;;;11.90;65.20;;;;;;4995402;28;20495;-74
2021/04/12 15:06:32;;;;;;;10.63;9.97;;;11.90;65.70;;;;;;4993646;28;20454;-73
2021/04/12 15:09:02;;;;;;;10.03;9.63;;;11.70;63.50;;;;;;5002198;28;20951;-73
2021/04/12 15:11:35;;;;;;;10.37;9.87;;;11.60;64.10;;;;;;5003490;28;20452;-73
2021/04/12 15:14:04;;;;;;;9.80;9.30;;;11.40;63.30;;;;;;5003150;28;20446;-73
2021/04/12 15:16:38;;;;;;;10.70;10.17;;;11.30;62.20;;;;;;4998984;28;20563;-72
2021/04/12 15:19:08;;;;;;;9.77;9.27;;;11.30;61.30;;;;;;5009748;28;20453;-73
2021/04/12 15:21:41;;;;;;;9.20;8.90;;;11.10;61.00;;;;;;5012499;28;20458;-73
2021/04/12 15:24:13;;;;;;;10.20;9.60;;;11.10;62.20;;;;;;5012351;28;20524;-72
2021/04/12 15:26:45;;;;;;;10.93;10.27;;;11.10;62.10;;;;;;5011946;28;20967;-72
2021/04/12 15:29:23;;;;;;;10.50;10.10;;;11.10;61.90;;;;;;5012670;28;20454;-72
2021/04/12 15:31:54;;;;;;;10.60;10.07;;;11.00;62.60;;;;;;5012321;28;20449;-70
2021/04/12 15:34:35;;;;;;;11.27;10.53;;;11.00;62.80;;;;;;5012073;28;20951;-71
2021/04/12 15:37:02;;;;;;;10.60;10.10;;;10.80;62.10;;;;;;5012097;28;20449;-72
2021/04/12 15:39:31;;;;;;;10.53;10.03;;;10.80;62.90;;;;;;5011968;28;20933;-71
2021/04/12 15:42:06;;;;;;;9.90;9.47;;;10.70;63.20;;;;;;5011915;28;20457;-71
2021/04/12 15:44:35;;;;;;;11.40;10.80;;;10.60;63.40;;;;;;5012063;28;20445;-71
2021/04/12 15:47:11;;;;;;;11.03;10.50;;;10.60;64.30;;;;;;5012110;28;20481;-71
2021/04/12 15:49:41;;;;;;;10.00;9.70;;;10.80;62.90;;;;;;5011972;28;20830;-72
2021/04/12 15:52:13;;;;;;;10.77;10.23;;;10.70;62.70;;;;;;5011701;28;20490;-72
2021/04/12 15:54:42;;;;;;;10.30;9.80;;;10.80;64.00;;;;;;5010004;28;20450;-72
2021/04/12 15:57:13;;;;;;;11.87;11.27;;;11.00;63.60;;;;;;4981260;28;20447;-72
2021/04/12 15:59:46;;;;;;;11.63;11.03;;;10.90;62.80;;;;;;4972796;28;20467;-72
2021/04/12 16:02:23;;;;;;;9.87;9.57;;;10.90;64.40;;;;;;4972465;28;20448;-71